DW6725 Weather Reports


Display with metric or nautical units.
time (UTC)temp
F
wind
direction
speed
MPH
gust
MPH
rain 1hr
in
rain 24hr
in
rain mn
in
humidity
%
barometer
mb
20200406025924 43 283 4.0 9.0 0.00 0.00 0.00 73 1019.3
20200406024924 42 266 3.0 9.0 0.00 0.00 0.00 74 1019.3
20200406023925 42 252 3.0 6.0 0.00 0.00 0.00 74 1019.2
20200406022924 42 284 3.0 9.0 0.00 0.00 0.00 75 1019.2
20200406021925 42 280 2.0 8.0 0.00 0.00 0.00 76 1019.3
20200406020924 42 203 1.0 4.0 0.00 0.00 0.00 77 1019.5
20200406015924 42 227 1.0 4.0 0.00 0.00 0.00 76 1019.4
20200406014924 42 341 1.0 4.0 0.00 0.00 0.00 76 1019.4
20200406013925 42 295 0.0 3.0 0.00 0.00 0.00 75 1019.3
20200406012925 43 0 0.0 2.0 0.00 0.00 0.00 74 1019.3
20200406011924 43 0 0.0 1.0 0.00 0.00 0.00 73 1019.2
20200406010924 45 0 0.0 1.0 0.00 0.00 0.00 71 1019.2
20200406005924 45 333 0.0 3.0 0.00 0.00 0.00 71 1019.1
20200406004925 45 359 1.0 4.0 0.00 0.00 0.00 70 1019.0
20200406003925 46 37 1.0 3.0 0.00 0.00 0.00 70 1019.0
20200406002924 46 22 1.0 4.0 0.00 0.00 0.00 70 1019.0
20200406001925 46 14 1.0 4.0 0.00 0.00 0.00 69 1018.8
20200406000925 46 33 1.0 4.0 0.00 0.00 0.00 68 1018.8
20200405235925 47 359 1.0 6.0 0.00 0.00 0.00 67 1018.6
20200405234925 48 356 3.0 9.0 0.00 0.00 0.00 66 1018.6
20200405233924 48 341 2.0 10.0 0.00 0.00 0.00 65 1018.4
20200405232925 49 1 4.0 10.0 0.00 0.00 0.00 63 1018.3
20200405231925 50 347 3.0 7.0 0.00 0.00 0.00 62 1018.4
20200405230925 51 333 3.0 7.0 0.00 0.00 0.00 60 1018.2
20200405225925 51 337 4.0 14.0 0.00 0.00 0.00 58 1018.1
20200405224925 52 341 6.0 17.0 0.00 0.00 0.00 55 1018.2
20200405223924 52 324 5.0 12.0 0.00 0.00 0.00 57 1018.0
20200405222925 53 326 4.0 14.0 0.00 0.00 0.00 58 1018.1
20200405221925 53 331 5.0 11.0 0.00 0.00 0.00 58 1017.9
20200405062928 49 0 0.0 0.0 0.00 0.00 0.00 81 1016.9
20200405061928 49 0 0.0 0.0 0.00 0.00 0.00 81 1017.0
20200405060929 49 0 0.0 0.0 0.00 0.00 0.00 81 1017.1
20200405055944 49 0 0.0 0.0 0.00 0.00 0.00 81 1017.1
20200405054928 49 0 0.0 0.0 0.00 0.00 0.00 81 1017.1
20200405053928 49 0 0.0 0.0 0.00 0.00 0.00 80 1017.2
20200405052929 49 0 0.0 0.0 0.00 0.00 0.00 80 1017.1
20200405051929 49 0 0.0 0.0 0.00 0.00 0.00 80 1017.0
20200405050928 49 0 0.0 0.0 0.00 0.00 0.00 79 1017.2
20200405045928 49 0 0.0 0.0 0.00 0.00 0.00 79 1017.1
20200405044928 49 0 0.0 0.0 0.00 0.00 0.00 79 1017.1
20200405043929 49 121 0.0 3.0 0.00 0.00 0.00 79 1017.3
20200405042929 49 97 0.0 2.0 0.00 0.00 0.00 79 1017.2
20200405041928 49 0 0.0 0.0 0.00 0.00 0.00 78 1017.2
20200405040929 49 0 0.0 0.0 0.00 0.00 0.00 78 1017.4
20200405035930 49 0 0.0 0.0 0.00 0.00 0.00 78 1017.4
20200405034929 49 0 0.0 0.0 0.00 0.00 0.00 77 1017.3
20200405033928 49 0 0.0 2.0 0.00 0.00 0.00 77 1017.2
20200405032928 49 0 0.0 0.0 0.00 0.00 0.00 77 1017.3
20200405031929 49 90 0.0 2.0 0.00 0.00 0.00 77 1017.3
20200405030929 49 117 0.0 2.0 0.00 0.00 0.00 76 1017.4